PWSweather.com
Personal Weather Stations
Station Observations
IBRABANT12
Leuven, BlandenBE 3052

LeuvenBlandenBE 3052

Lat: 50.8252218, Lon: 4.709682799999996

Elevation: 193

Station Type: Davis Vantage Vue

http://www.weerstationblanden.be

Latest ConditionsUpdated 2:50:34 PM GMT+01:01 Wednesday, Apr 23, 2014
Currently Today's Max Today's Min Today's Average
Temperature 69.2°F20.7°C 69.2°F20.7°C 46.9°F8.3°C 55.9°F13.3°C
Dew Point 49.2°F9.6°C 53.0°F11.7°C 45.3°F7.4°C 48.8°F9.3°C
Winds 1.2 mph SW1.9 kmh SW 4.8 mph WNW7.7 kmh WNW - 1.2 mph 1.9 kmh
Wind Gusts 4.0 mph6.4 kmh 8.0 mph12.9 kmh - -
Humidity 49% 95% 48% 79%
Pressure 30.02 in1016.6 mb 30.05 in1017.6 mb 29.95 in1014.2 mb -
Hour Temp Dew Point Humidity Winds Wind Gusts Pressure Precip Precip Rate Daily Precip Total
02:50 PM 69.2°F20.7°C 49.2°F9.6°C 49% 1.2 mph SW1.9 kmh SW 4.0 mph6.4 kmh 30.02 in1016.6 mb 0.00 in0.0 mm 0.00 in/hr0.0 mm/hr 0.00 in0.0 mm
02:40 PM 68.9°F20.5°C 48.4°F9.1°C 48% 0.7 mph SSW1.1 kmh SSW 2.0 mph3.2 kmh 30.03 in1016.9 mb 0.00 in0.0 mm 0.00 in/hr0.0 mm/hr 0.00 in0.0 mm
02:30 PM 68.9°F20.5°C 49.4°F9.7°C 50% 2.8 mph SW4.5 kmh SW 5.0 mph8.0 kmh 30.03 in1016.9 mb 0.00 in0.0 mm 0.00 in/hr0.0 mm/hr 0.00 in0.0 mm
02:20 PM 67.1°F19.5°C 48.4°F9.1°C 51% 3.6 mph E5.8 kmh E 5.0 mph8.0 kmh 30.03 in1016.9 mb 0.00 in0.0 mm 0.00 in/hr0.0 mm/hr 0.00 in0.0 mm
02:10 PM 67.7°F19.8°C 49.5°F9.7°C 52% 1.2 mph ESE1.9 kmh ESE 2.0 mph3.2 kmh 30.03 in1016.9 mb 0.00 in0.0 mm 0.00 in/hr0.0 mm/hr 0.00 in0.0 mm
02:00 PM 66.9°F19.4°C 50.2°F10.1°C 55% 4.8 mph WNW7.7 kmh WNW 8.0 mph12.9 kmh 30.04 in1017.3 mb 0.00 in0.0 mm 0.00 in/hr0.0 mm/hr 0.00 in0.0 mm
01:50 PM 67.0°F19.4°C 48.3°F9.1°C 51% 1.0 mph WSW1.6 kmh WSW 3.0 mph4.8 kmh 30.03 in1016.9 mb 0.00 in0.0 mm 0.00 in/hr0.0 mm/hr 0.00 in0.0 mm
01:40 PM 66.2°F19.0°C 49.5°F9.7°C 55% 3.0 mph SW4.8 kmh SW 5.0 mph8.0 kmh 30.04 in1017.3 mb 0.00 in0.0 mm 0.00 in/hr0.0 mm/hr 0.00 in0.0 mm
01:30 PM 65.4°F18.6°C 48.4°F9.1°C 54% 3.2 mph WSW5.1 kmh WSW 4.0 mph6.4 kmh 30.04 in1017.3 mb 0.00 in0.0 mm 0.00 in/hr0.0 mm/hr 0.00 in0.0 mm
01:20 PM 65.5°F18.6°C 48.9°F9.4°C 55% 0.7 mph W1.1 kmh W 2.0 mph3.2 kmh 30.04 in1017.3 mb 0.00 in0.0 mm 0.00 in/hr0.0 mm/hr 0.00 in0.0 mm
01:10 PM 64.9°F18.3°C 48.9°F9.4°C 56% 2.3 mph SW3.7 kmh SW 4.0 mph6.4 kmh 30.04 in1017.3 mb 0.00 in0.0 mm 0.00 in/hr0.0 mm/hr 0.00 in0.0 mm
01:00 PM 65.9°F18.8°C 50.2°F10.1°C 57% 3.1 mph WSW5.0 kmh WSW 5.0 mph8.0 kmh 30.04 in1017.3 mb 0.00 in0.0 mm 0.00 in/hr0.0 mm/hr 0.00 in0.0 mm
12:50 PM 66.0°F18.9°C 49.3°F9.6°C 55% 3.9 mph ENE6.3 kmh ENE 4.0 mph6.4 kmh 30.04 in1017.3 mb 0.00 in0.0 mm 0.00 in/hr0.0 mm/hr 0.00 in0.0 mm
12:40 PM 64.8°F18.2°C 49.7°F9.8°C 58% 1.5 mph SSE2.4 kmh SSE 2.0 mph3.2 kmh 30.04 in1017.3 mb 0.00 in0.0 mm 0.00 in/hr0.0 mm/hr 0.00 in0.0 mm
12:30 PM 65.1°F18.4°C 49.5°F9.7°C 57% 4.1 mph SW6.6 kmh SW 6.0 mph9.7 kmh 30.04 in1017.3 mb 0.00 in0.0 mm 0.00 in/hr0.0 mm/hr 0.00 in0.0 mm
12:20 PM 66.1°F18.9°C 49.9°F9.9°C 56% 3.9 mph SW6.3 kmh SW 6.0 mph9.7 kmh 30.04 in1017.3 mb 0.00 in0.0 mm 0.00 in/hr0.0 mm/hr 0.00 in0.0 mm
12:10 PM 66.3°F19.1°C 50.2°F10.1°C 56% 2.7 mph SW4.3 kmh SW 7.0 mph11.3 kmh 30.04 in1017.3 mb 0.00 in0.0 mm 0.00 in/hr0.0 mm/hr 0.00 in0.0 mm
12:00 PM 64.7°F18.2°C 50.0°F10.0°C 59% 3.5 mph SSW5.6 kmh SSW 4.0 mph6.4 kmh 30.04 in1017.3 mb 0.00 in0.0 mm 0.00 in/hr0.0 mm/hr 0.00 in0.0 mm
11:50 AM 64.2°F17.9°C 49.1°F9.5°C 58% 1.5 mph SW2.4 kmh SW 3.0 mph4.8 kmh 30.04 in1017.3 mb 0.00 in0.0 mm 0.00 in/hr0.0 mm/hr 0.00 in0.0 mm
11:40 AM 64.9°F18.3°C 49.7°F9.8°C 58% 3.0 mph WSW4.8 kmh WSW 6.0 mph9.7 kmh 30.04 in1017.3 mb 0.00 in0.0 mm 0.00 in/hr0.0 mm/hr 0.00 in0.0 mm
11:30 AM 65.6°F18.7°C 50.4°F10.2°C 58% 0.7 mph E1.1 kmh E 2.0 mph3.2 kmh 30.04 in1017.3 mb 0.00 in0.0 mm 0.00 in/hr0.0 mm/hr 0.00 in0.0 mm
11:20 AM 64.8°F18.2°C 51.5°F10.8°C 62% 2.5 mph S4.0 kmh S 5.0 mph8.0 kmh 30.04 in1017.3 mb 0.00 in0.0 mm 0.00 in/hr0.0 mm/hr 0.00 in0.0 mm
11:10 AM 62.9°F17.2°C 50.2°F10.1°C 63% 3.8 mph W6.1 kmh W 5.0 mph8.0 kmh 30.05 in1017.6 mb 0.00 in0.0 mm 0.00 in/hr0.0 mm/hr 0.00 in0.0 mm
11:00 AM 63.2°F17.3°C 50.4°F10.2°C 63% 2.4 mph NW3.9 kmh NW 4.0 mph6.4 kmh 30.05 in1017.6 mb 0.00 in0.0 mm 0.00 in/hr0.0 mm/hr 0.00 in0.0 mm
10:50 AM 62.1°F16.7°C 48.9°F9.4°C 62% 1.7 mph SW2.7 kmh SW 3.0 mph4.8 kmh 30.05 in1017.6 mb 0.00 in0.0 mm 0.00 in/hr0.0 mm/hr 0.00 in0.0 mm
10:40 AM 62.1°F16.7°C 50.2°F10.1°C 65% 4.5 mph S7.2 kmh S 6.0 mph9.7 kmh 30.05 in1017.6 mb 0.00 in0.0 mm 0.00 in/hr0.0 mm/hr 0.00 in0.0 mm
10:30 AM 61.6°F16.4°C 50.1°F10.1°C 66% 1.1 mph SSW1.8 kmh SSW 3.0 mph4.8 kmh 30.05 in1017.6 mb 0.00 in0.0 mm 0.00 in/hr0.0 mm/hr 0.00 in0.0 mm
10:20 AM 61.4°F16.3°C 50.3°F10.2°C 67% 2.3 mph SSW3.7 kmh SSW 3.0 mph4.8 kmh 30.05 in1017.6 mb 0.00 in0.0 mm 0.00 in/hr0.0 mm/hr 0.00 in0.0 mm
10:10 AM 60.8°F16.0°C 50.9°F10.5°C 70% 0.8 mph E1.3 kmh E 2.0 mph3.2 kmh 30.05 in1017.6 mb 0.00 in0.0 mm 0.00 in/hr0.0 mm/hr 0.00 in0.0 mm
10:00 AM 60.9°F16.1°C 51.0°F10.6°C 70% 1.9 mph E3.1 kmh E 3.0 mph4.8 kmh 30.05 in1017.6 mb 0.00 in0.0 mm 0.00 in/hr0.0 mm/hr 0.00 in0.0 mm
09:50 AM 61.2°F16.2°C 52.1°F11.2°C 72% 0.5 mph WNW0.8 kmh WNW 1.0 mph1.6 kmh 30.05 in1017.6 mb 0.00 in0.0 mm 0.00 in/hr0.0 mm/hr 0.00 in0.0 mm
09:40 AM 59.6°F15.3°C 50.5°F10.3°C 72% 2.4 mph WSW3.9 kmh WSW 4.0 mph6.4 kmh 30.05 in1017.6 mb 0.00 in0.0 mm 0.00 in/hr0.0 mm/hr 0.00 in0.0 mm
09:30 AM 58.9°F14.9°C 51.0°F10.6°C 75% 1.9 mph SSW3.1 kmh SSW 2.0 mph3.2 kmh 30.05 in1017.6 mb 0.00 in0.0 mm 0.00 in/hr0.0 mm/hr 0.00 in0.0 mm
09:20 AM 58.0°F14.4°C 51.2°F10.7°C 78% 2.5 mph W4.0 kmh W 3.0 mph4.8 kmh 30.05 in1017.6 mb 0.00 in0.0 mm 0.00 in/hr0.0 mm/hr 0.00 in0.0 mm
09:10 AM 58.2°F14.6°C 52.0°F11.1°C 80% 2.0 mph WNW3.2 kmh WNW 3.0 mph4.8 kmh 30.04 in1017.3 mb 0.00 in0.0 mm 0.00 in/hr0.0 mm/hr 0.00 in0.0 mm
09:00 AM 57.0°F13.9°C 51.6°F10.9°C 82% 2.1 mph S3.4 kmh S 3.0 mph4.8 kmh 30.04 in1017.3 mb 0.00 in0.0 mm 0.00 in/hr0.0 mm/hr 0.00 in0.0 mm
08:50 AM 56.5°F13.6°C 51.4°F10.8°C 83% 2.6 mph SW4.2 kmh SW 4.0 mph6.4 kmh 30.04 in1017.3 mb 0.00 in0.0 mm 0.00 in/hr0.0 mm/hr 0.00 in0.0 mm
08:40 AM 55.8°F13.2°C 51.4°F10.8°C 85% 1.8 mph SW2.9 kmh SW 3.0 mph4.8 kmh 30.04 in1017.3 mb 0.00 in0.0 mm 0.00 in/hr0.0 mm/hr 0.00 in0.0 mm
08:30 AM 55.5°F13.1°C 51.4°F10.8°C 86% 2.0 mph W3.2 kmh W 5.0 mph8.0 kmh 30.04 in1017.3 mb 0.00 in0.0 mm 0.00 in/hr0.0 mm/hr 0.00 in0.0 mm
08:20 AM 55.1°F12.8°C 51.0°F10.6°C 86% 2.8 mph SW4.5 kmh SW 4.0 mph6.4 kmh 30.04 in1017.3 mb 0.00 in0.0 mm 0.00 in/hr0.0 mm/hr 0.00 in0.0 mm
08:10 AM 55.2°F12.9°C 51.0°F10.6°C 86% 1.2 mph SW1.9 kmh SW 4.0 mph6.4 kmh 30.03 in1016.9 mb 0.00 in0.0 mm 0.00 in/hr0.0 mm/hr 0.00 in0.0 mm
08:00 AM 55.2°F12.9°C 50.5°F10.3°C 84% 2.0 mph SW3.2 kmh SW 2.0 mph3.2 kmh 30.03 in1016.9 mb 0.00 in0.0 mm 0.00 in/hr0.0 mm/hr 0.00 in0.0 mm
07:50 AM 56.5°F13.6°C 51.1°F10.6°C 82% 0.9 mph SSW1.4 kmh SSW 2.0 mph3.2 kmh 30.03 in1016.9 mb 0.00 in0.0 mm 0.00 in/hr0.0 mm/hr 0.00 in0.0 mm
07:40 AM 56.8°F13.8°C 52.9°F11.6°C 87% Calm Calm 1.0 mph1.6 kmh 30.03 in1016.9 mb 0.00 in0.0 mm 0.00 in/hr0.0 mm/hr 0.00 in0.0 mm
07:30 AM 55.5°F13.1°C 53.0°F11.7°C 91% 0.3 mph S0.5 kmh S 1.0 mph1.6 kmh 30.03 in1016.9 mb 0.00 in0.0 mm 0.00 in/hr0.0 mm/hr 0.00 in0.0 mm
07:20 AM 53.6°F12.0°C 51.3°F10.7°C 92% Calm Calm -- 30.03 in1016.9 mb 0.00 in0.0 mm 0.00 in/hr0.0 mm/hr 0.00 in0.0 mm
07:10 AM 52.1°F11.2°C 50.4°F10.2°C 94% Calm Calm 1.0 mph1.6 kmh 30.02 in1016.6 mb 0.00 in0.0 mm 0.00 in/hr0.0 mm/hr 0.00 in0.0 mm
07:00 AM 50.1°F10.1°C 48.8°F9.3°C 95% Calm Calm -- 30.02 in1016.6 mb 0.00 in0.0 mm 0.00 in/hr0.0 mm/hr 0.00 in0.0 mm
06:50 AM 48.4°F9.1°C 46.8°F8.2°C 94% 0.2 mph E0.3 kmh E -- 30.02 in1016.6 mb 0.00 in0.0 mm 0.00 in/hr0.0 mm/hr 0.00 in0.0 mm
06:40 AM 47.6°F8.7°C 45.9°F7.7°C 94% 0.5 mph E0.8 kmh E 1.0 mph1.6 kmh 30.02 in1016.6 mb 0.00 in0.0 mm 0.00 in/hr0.0 mm/hr 0.00 in0.0 mm
06:30 AM 46.9°F8.3°C 45.3°F7.4°C 94% 0.9 mph E1.4 kmh E 1.0 mph1.6 kmh 30.02 in1016.6 mb 0.00 in0.0 mm 0.00 in/hr0.0 mm/hr 0.00 in0.0 mm
06:20 AM 47.1°F8.4°C 45.5°F7.5°C 94% Calm Calm -- 30.02 in1016.6 mb 0.00 in0.0 mm 0.00 in/hr0.0 mm/hr 0.00 in0.0 mm
06:10 AM 47.2°F8.4°C 45.6°F7.6°C 94% Calm Calm -- 30.02 in1016.6 mb 0.00 in0.0 mm 0.00 in/hr0.0 mm/hr 0.00 in0.0 mm
06:00 AM 47.2°F8.4°C 45.3°F7.4°C 93% Calm Calm -- 30.02 in1016.6 mb 0.00 in0.0 mm 0.00 in/hr0.0 mm/hr 0.00 in0.0 mm
05:50 AM 47.8°F8.8°C 45.9°F7.7°C 93% Calm Calm -- 30.01 in1016.3 mb 0.00 in0.0 mm 0.00 in/hr0.0 mm/hr 0.00 in0.0 mm
05:40 AM 48.3°F9.1°C 46.3°F7.9°C 93% Calm Calm -- 30.01 in1016.3 mb 0.00 in0.0 mm 0.00 in/hr0.0 mm/hr 0.00 in0.0 mm
05:30 AM 48.7°F9.3°C 46.8°F8.2°C 93% Calm Calm -- 30.01 in1016.3 mb 0.00 in0.0 mm 0.00 in/hr0.0 mm/hr 0.00 in0.0 mm
05:20 AM 48.9°F9.4°C 47.0°F8.3°C 93% Calm Calm -- 30.01 in1016.3 mb 0.00 in0.0 mm 0.00 in/hr0.0 mm/hr 0.00 in0.0 mm
05:10 AM 48.9°F9.4°C 47.0°F8.3°C 93% 1.1 mph E1.8 kmh E 2.0 mph3.2 kmh 30.00 in1015.9 mb 0.00 in0.0 mm 0.00 in/hr0.0 mm/hr 0.00 in0.0 mm
05:00 AM 48.7°F9.3°C 46.8°F8.2°C 93% 0.5 mph E0.8 kmh E 1.0 mph1.6 kmh 30.00 in1015.9 mb 0.00 in0.0 mm 0.00 in/hr0.0 mm/hr 0.00 in0.0 mm
04:50 AM 48.7°F9.3°C 46.8°F8.2°C 93% 0.1 mph E0.2 kmh E 1.0 mph1.6 kmh 30.00 in1015.9 mb 0.00 in0.0 mm 0.00 in/hr0.0 mm/hr 0.00 in0.0 mm
04:40 AM 48.9°F9.4°C 47.0°F8.3°C 93% Calm Calm -- 29.99 in1015.6 mb 0.00 in0.0 mm 0.00 in/hr0.0 mm/hr 0.00 in0.0 mm
04:30 AM 48.9°F9.4°C 47.0°F8.3°C 93% Calm Calm -- 29.99 in1015.6 mb 0.00 in0.0 mm 0.00 in/hr0.0 mm/hr 0.00 in0.0 mm
04:20 AM 49.0°F9.4°C 47.1°F8.4°C 93% Calm Calm -- 29.99 in1015.6 mb 0.00 in0.0 mm 0.00 in/hr0.0 mm/hr 0.00 in0.0 mm
04:10 AM 48.9°F9.4°C 46.7°F8.2°C 92% Calm Calm 1.0 mph1.6 kmh 29.99 in1015.6 mb 0.00 in0.0 mm 0.00 in/hr0.0 mm/hr 0.00 in0.0 mm
04:00 AM 49.0°F9.4°C 46.8°F8.2°C 92% Calm Calm -- 29.99 in1015.6 mb 0.00 in0.0 mm 0.00 in/hr0.0 mm/hr 0.00 in0.0 mm
03:50 AM 49.2°F9.6°C 47.0°F8.3°C 92% 0.4 mph SE0.6 kmh SE 1.0 mph1.6 kmh 29.99 in1015.6 mb 0.00 in0.0 mm 0.00 in/hr0.0 mm/hr 0.00 in0.0 mm
03:40 AM 49.5°F9.7°C 46.9°F8.3°C 91% Calm Calm 1.0 mph1.6 kmh 29.98 in1015.2 mb 0.00 in0.0 mm 0.00 in/hr0.0 mm/hr 0.00 in0.0 mm
03:30 AM 49.7°F9.8°C 46.9°F8.3°C 90% Calm Calm -- 29.98 in1015.2 mb 0.00 in0.0 mm 0.00 in/hr0.0 mm/hr 0.00 in0.0 mm
03:20 AM 50.4°F10.2°C 47.9°F8.8°C 91% 0.2 mph SW0.3 kmh SW 1.0 mph1.6 kmh 29.98 in1015.2 mb 0.00 in0.0 mm 0.00 in/hr0.0 mm/hr 0.00 in0.0 mm
03:10 AM 50.6°F10.3°C 48.0°F8.9°C 91% Calm Calm -- 29.98 in1015.2 mb 0.00 in0.0 mm 0.00 in/hr0.0 mm/hr 0.00 in0.0 mm
03:00 AM 50.6°F10.3°C 48.1°F8.9°C 91% Calm Calm -- 29.98 in1015.2 mb 0.00 in0.0 mm 0.00 in/hr0.0 mm/hr 0.00 in0.0 mm
02:50 AM 50.6°F10.3°C 48.1°F8.9°C 91% 0.3 mph S0.5 kmh S 1.0 mph1.6 kmh 29.98 in1015.2 mb 0.00 in0.0 mm 0.00 in/hr0.0 mm/hr 0.00 in0.0 mm
02:40 AM 50.6°F10.3°C 48.1°F8.9°C 91% 0.1 mph SE0.2 kmh SE 1.0 mph1.6 kmh 29.98 in1015.2 mb 0.00 in0.0 mm 0.00 in/hr0.0 mm/hr 0.00 in0.0 mm
02:30 AM 50.5°F10.3°C 48.0°F8.9°C 91% 0.3 mph SE0.5 kmh SE 2.0 mph3.2 kmh 29.98 in1015.2 mb 0.00 in0.0 mm 0.00 in/hr0.0 mm/hr 0.00 in0.0 mm
02:20 AM 50.4°F10.2°C 47.9°F8.8°C 91% Calm Calm -- 29.98 in1015.2 mb 0.00 in0.0 mm 0.00 in/hr0.0 mm/hr 0.00 in0.0 mm
02:10 AM 50.4°F10.2°C 47.8°F8.8°C 91% Calm Calm -- 29.98 in1015.2 mb 0.00 in0.0 mm 0.00 in/hr0.0 mm/hr 0.00 in0.0 mm
02:00 AM 50.3°F10.2°C 48.1°F8.9°C 92% 0.6 mph E1.0 kmh E 1.0 mph1.6 kmh 29.97 in1014.9 mb 0.00 in0.0 mm 0.00 in/hr0.0 mm/hr 0.00 in0.0 mm
01:50 AM 50.3°F10.2°C 48.1°F8.9°C 92% Calm Calm -- 29.97 in1014.9 mb 0.00 in0.0 mm 0.00 in/hr0.0 mm/hr 0.00 in0.0 mm
01:40 AM 50.3°F10.2°C 48.1°F8.9°C 92% Calm Calm -- 29.97 in1014.9 mb 0.00 in0.0 mm 0.00 in/hr0.0 mm/hr 0.00 in0.0 mm
01:30 AM 50.3°F10.2°C 48.1°F8.9°C 92% Calm Calm -- 29.97 in1014.9 mb 0.00 in0.0 mm 0.00 in/hr0.0 mm/hr 0.00 in0.0 mm
01:20 AM 50.4°F10.2°C 48.2°F9.0°C 92% Calm Calm -- 29.97 in1014.9 mb 0.00 in0.0 mm 0.00 in/hr0.0 mm/hr 0.00 in0.0 mm
01:10 AM 50.3°F10.2°C 48.1°F8.9°C 92% Calm Calm -- 29.96 in1014.6 mb 0.00 in0.0 mm 0.00 in/hr0.0 mm/hr 0.00 in0.0 mm
01:00 AM 50.3°F10.2°C 48.1°F8.9°C 92% Calm Calm -- 29.96 in1014.6 mb 0.00 in0.0 mm 0.00 in/hr0.0 mm/hr 0.00 in0.0 mm
12:50 AM 50.2°F10.1°C 48.0°F8.9°C 92% Calm Calm 1.0 mph1.6 kmh 29.96 in1014.6 mb 0.00 in0.0 mm 0.00 in/hr0.0 mm/hr 0.00 in0.0 mm
12:40 AM 50.1°F10.1°C 47.9°F8.8°C 92% Calm Calm -- 29.96 in1014.6 mb 0.00 in0.0 mm 0.00 in/hr0.0 mm/hr 0.00 in0.0 mm
12:30 AM 49.9°F9.9°C 47.4°F8.6°C 91% Calm Calm -- 29.96 in1014.6 mb 0.00 in0.0 mm 0.00 in/hr0.0 mm/hr 0.00 in0.0 mm
12:20 AM 49.9°F9.9°C 47.4°F8.6°C 91% Calm Calm -- 29.96 in1014.6 mb 0.00 in0.0 mm 0.00 in/hr0.0 mm/hr 0.00 in0.0 mm
12:10 AM 49.8°F9.9°C 47.2°F8.4°C 91% 0.3 mph E0.5 kmh E 1.0 mph1.6 kmh 29.96 in1014.6 mb 0.00 in0.0 mm 0.00 in/hr0.0 mm/hr 0.00 in0.0 mm
12:00 AM 49.5°F9.7°C 47.0°F8.3°C 91% 0.1 mph E0.2 kmh E 2.0 mph3.2 kmh 29.95 in1014.2 mb 0.00 in0.0 mm 0.00 in/hr0.0 mm/hr 0.00 in0.0 mm